METAR Data
IDs: Format: Raw Decoded Include TAF

Data at: 0723 UTC 23 Feb 2019

KODO 230701Z AUTO 26026G33KT 4SM HZ SCT018 BKN120 11/M02 A2985 RMK AO2 PK WND 27033/0656 T01061022
KODO 230649Z AUTO 26026G37KT 2 1/2SM HZ OVC022 11/M02 A2984 RMK AO2 PK WND 25037/0646 SLP076 T01111022
KODO 230648Z AUTO 26028G37KT 2 1/2SM HZ OVC024 11/M02 A2984 RMK AO2 PK WND 25037/0646 PRESRR
KODO 230553Z AUTO 26021G30KT 6SM HZ FEW028 BKN046 OVC060 14/06 A2977 RMK AO2 PK WND 23030/0550 WSHFT 0505 LTG DSNT SE AND S SLP054 T01440056 10222 20144 402280006 53035
KODO 230525Z AUTO 23019G26KT 10SM SCT028 SCT035 14/07 A2976 RMK AO2 PK WND 23026/0519 WSHFT 0505 PRESRR T01440067
KODO 230453Z AUTO 17016G24KT 10SM CLR 14/05 A2967 RMK AO2 PK WND 16031/0404 SLP022 T01440050
KODO 230353Z AUTO 16020G30KT 10SM CLR 15/04 A2966 RMK AO2 PK WND 16031/0340 SLP020 T01500039
KODO 230253Z AUTO 15022G30KT 10SM CLR 16/03 A2966 RMK AO2 PK WND 14031/0229 SLP021 T01610028 58010
KODO 230153Z AUTO 16018G23KT 10SM CLR 18/02 A2968 RMK AO2 PK WND 16027/0104 SLP028 T01780022
KODO 230053Z AUTO 16016KT 10SM CLR 19/M02 A2968 RMK AO2 PK WND 18026/0005 SLP032 T01941017
KODO 222353Z AUTO 17015G25KT 10SM CLR 22/M04 A2970 RMK AO2 SLP031 T02221044 10228 20150 58025
KODO 222253Z AUTO 15013G20KT 10SM CLR 22/M01 A2972 RMK AO2 SLP038 T02221011
KODO 222153Z AUTO 20008G17KT 10SM CLR 22/M02 A2975 RMK AO2 SLP051 T02171022
KODO 222053Z AUTO 20007G17KT 10SM CLR 21/M05 A2978 RMK AO2 SLP058 T02111050 56035
KODO 221953Z AUTO 18010G16KT 10SM CLR 21/M04 A2981 RMK AO2 SLP067 T02111044
KODO 221853Z AUTO 19007KT 10SM CLR 18/M01 A2985 RMK AO2 SLP085 T01831011
KODO 221753Z AUTO 18005KT 10SM CLR 15/04 A2989 RMK AO2 SLP099 T01500044 10150 20006 58012
KODO 221653Z AUTO 19007KT 8SM CLR 12/06 A2991 RMK AO2 SLP110 T01220056
KODO 221610Z AUTO 16005KT 5SM HZ SCT005 10/06 A2992 RMK AO2 T01000056
KODO 221603Z AUTO 16005KT 4SM HZ BKN005 09/06 A2992 RMK AO2 CIG 004V009 T00940061
KODO 221553Z AUTO 00000KT 4SM HZ BKN004 08/06 A2992 RMK AO2 CIG 003V009 SLP116 T00830056
KODO 221543Z AUTO VRB04KT 3SM BR OVC003 08/06 A2993 RMK AO2 CIG 002V007 T00780056
KODO 221529Z AUTO 14004KT 2SM BR OVC002 07/06 A2992 RMK AO2 T00720056
KODO 221502Z AUTO 10004KT 1 1/2SM BR OVC002 07/06 A2993 RMK AO2 T00720056
KODO 221453Z AUTO 12006KT 2 1/2SM BR OVC003 07/05 A2992 RMK AO2 SLP116 T00670050 53021
KODO 221401Z AUTO 06004KT 6SM BR OVC004 03/02 A2990 RMK AO2 T00330017
KODO 221353Z AUTO 03003KT 5SM BR OVC005 03/02 A2990 RMK AO2 SLP107 T00330017
KODO 221313Z AUTO 03007KT 6SM BR BKN007 01/M01 A2989 RMK AO2 T00111006
KODO 221304Z AUTO 02007KT 7SM SCT007 01/M01 A2988 RMK AO2 T00061006
KODO 221253Z AUTO 02007KT 6SM BR CLR 01/M01 A2988 RMK AO2 SLP103 T00061006
KODO 221220Z AUTO 04005KT 8SM FEW009 01/00 A2987 RMK AO2 T00110000
KODO 221153Z AUTO 11004KT 9SM CLR 02/00 A2986 RMK AO2 SLP092 T00170000 10072 20017 53005
KODO 221053Z AUTO 13007KT 10SM CLR 03/01 A2984 RMK AO2 SLP083 T00280006
KODO 220953Z AUTO 10007KT 10SM CLR 03/00 A2984 RMK AO2 SLP081 T00280000
KODO 220853Z AUTO 11004KT 10SM CLR 04/01 A2984 RMK AO2 SLP082 T00390006 53003
KODO 220753Z AUTO 13007KT 10SM CLR 05/01 A2983 RMK AO2 SLP078 T00500006
KODO 220653Z AUTO 12011KT 10SM CLR 06/00 A2982 RMK AO2 SLP076 T00610000
KODO 220553Z AUTO 13011KT 10SM CLR 07/01 A2983 RMK AO2 SLP079 T00720006 10167 20072 401940072 51007
KODO 220453Z AUTO 13012KT 10SM CLR 08/01 A2983 RMK AO2 SLP079 T00830011
KODO 220353Z AUTO 13013KT 10SM CLR 09/01 A2982 RMK AO2 SLP079 T00940006
KODO 220253Z AUTO 12011KT 10SM CLR 11/01 A2981 RMK AO2 SLP074 T01060006 51017
KODO 220153Z AUTO 13013KT 10SM FEW120 13/01 A2980 RMK AO2 SLP069 T01280006
KODO 220053Z AUTO 13011KT 10SM CLR 14/01 A2978 RMK AO2 SLP060 T01440006
KODO 212353Z AUTO 13015KT 10SM CLR 17/00 A2975 RMK AO2 SLP050 T01670000 10194 20144 53003
KODO 212253Z AUTO 16014KT 10SM CLR 18/M01 A2974 RMK AO2 SLP043 T01831011
KODO 212153Z AUTO 15018KT 10SM CLR 19/M01 A2973 RMK AO2 SLP041 T01891011
KODO 212053Z AUTO 16014KT 10SM CLR 18/M01 A2974 RMK AO2 SLP045 T01831011 58023
KODO 211953Z AUTO 18009KT 10SM CLR 18/M02 A2976 RMK AO2 SLP053 T01831022